Time;durP1;ratioP1;P1;durP2;ratioP2;P2;SDS_P1;SDS_P2;PMS_P1;PMS_P2;Temp;Humidity;BMP_temperature;BMP_pressure;BME280_temperature;BME280_humidity;BME280_pressure;Samples;Min_cycle;Max_cycle;Signal;HPM_P1;HPM_P2
2023/08/18 00:01:25;;;;;;;24.13;21.50;;;;;;;;;;5018467;28;20026;-76
2023/08/18 00:03:51;;;;;;;25.23;22.52;;;;;;;;;;5014541;28;20056;-76
2023/08/18 00:06:17;;;;;;;26.35;21.55;;;615.10;2432.00;;;;;;5016635;28;20492;-75
2023/08/18 00:08:43;;;;;;;34.42;21.50;;;615.10;2432.00;;;;;;5028045;28;20037;-75
2023/08/18 00:11:09;;;;;;;24.00;21.60;;;615.00;2432.00;;;;;;5022952;28;20050;-76
2023/08/18 00:13:34;;;;;;;26.50;21.45;;;615.00;2432.00;;;;;;5013325;28;20124;-76
2023/08/18 00:16:00;;;;;;;24.00;20.48;;;614.90;2432.00;;;;;;5023478;28;20468;-75
2023/08/18 00:18:26;;;;;;;25.30;20.25;;;614.90;2432.00;;;;;;5027052;28;20036;-75
2023/08/18 00:20:52;;;;;;;26.85;21.35;;;614.90;2432.00;;;;;;5027454;28;20030;-77
2023/08/18 00:23:18;;;;;;;24.30;20.92;;;614.90;2432.00;;;;;;5026057;28;20029;-76
2023/08/18 00:25:44;;;;;;;24.67;21.42;;;615.00;2432.00;;;;;;5000082;28;20026;-75
2023/08/18 00:28:10;;;;;;;24.63;21.00;;;615.00;2432.00;;;;;;5020898;28;20033;-76
2023/08/18 00:30:36;;;;;;;30.52;21.55;;;615.00;2432.00;;;;;;5024164;28;20036;-75
2023/08/18 00:33:01;;;;;;;23.58;20.95;;;615.00;2432.00;;;;;;5022701;28;20117;-77
2023/08/18 00:35:27;;;;;;;30.73;21.48;;;615.00;2432.00;;;;;;5020466;28;20022;-75
2023/08/18 00:37:53;;;;;;;27.75;21.73;;;615.00;2432.00;;;;;;5022459;28;20061;-76
2023/08/18 00:40:19;;;;;;;23.35;20.30;;;615.00;2432.00;;;;;;5018745;28;20033;-75
2023/08/18 00:42:44;;;;;;;25.85;21.35;;;614.90;2432.00;;;;;;5017845;28;20037;-75
2023/08/18 00:45:10;;;;;;;33.97;22.52;;;614.90;2432.00;;;;;;5023549;28;20056;-76
2023/08/18 00:47:37;;;;;;;39.97;22.75;;;614.90;2432.00;;;;;;5018741;28;20127;-72
2023/08/18 00:50:04;;;;;;;24.83;22.13;;;614.90;2432.00;;;;;;5017660;28;20025;-74
2023/08/18 00:52:30;;;;;;;30.77;23.52;;;614.90;2432.00;;;;;;5023384;28;20018;-73
2023/08/18 00:54:57;;;;;;;26.40;22.17;;;614.90;2432.00;;;;;;5009107;28;20046;-74
2023/08/18 00:57:23;;;;;;;27.10;21.88;;;614.90;2432.00;;;;;;5024174;28;20021;-72
2023/08/18 00:59:50;;;;;;;27.08;22.55;;;614.90;2432.00;;;;;;5019988;28;20033;-74
2023/08/18 01:02:19;;;;;;;27.17;22.58;;;614.80;2432.00;;;;;;5018862;28;20038;-74
2023/08/18 01:04:46;;;;;;;30.50;23.45;;;614.80;2432.00;;;;;;5009931;28;20431;-73
2023/08/18 01:07:11;;;;;;;27.25;24.15;;;614.80;2432.00;;;;;;5024180;28;20053;-73
2023/08/18 01:09:37;;;;;;;26.98;22.70;;;614.80;2432.00;;;;;;5017475;28;20096;-72
2023/08/18 01:12:34;;;;;;;26.40;23.55;;;614.90;2432.00;;;;;;5019096;28;20030;-74
2023/08/18 01:15:24;;;;;;;25.27;21.98;;;614.80;2432.00;;;;;;5020822;28;20033;-73
2023/08/18 01:17:52;;;;;;;26.63;22.88;;;614.80;2432.00;;;;;;5007583;28;20033;-74
2023/08/18 01:20:19;;;;;;;26.85;23.02;;;614.70;2432.00;;;;;;5004857;28;20080;-73
2023/08/18 01:22:48;;;;;;;26.02;21.58;;;614.70;2432.00;;;;;;5017915;28;20058;-73
2023/08/18 01:25:14;;;;;;;29.35;23.98;;;614.60;2432.00;;;;;;5018354;28;20022;-73
2023/08/18 01:27:39;;;;;;;27.45;23.13;;;614.70;2432.00;;;;;;5018187;28;20032;-74
2023/08/18 01:30:06;;;;;;;22.88;19.92;;;614.80;2432.00;;;;;;5023518;28;20116;-73
2023/08/18 01:32:39;;;;;;;23.30;20.83;;;614.70;2432.00;;;;;;5022641;28;20044;-73
2023/08/18 01:35:06;;;;;;;26.40;22.13;;;614.80;2432.00;;;;;;5021370;28;20084;-74
2023/08/18 01:37:32;;;;;;;21.55;18.98;;;614.80;2432.00;;;;;;5026054;28;20068;-73
2023/08/18 01:39:59;;;;;;;24.00;20.95;;;614.80;2432.00;;;;;;5018752;28;20025;-72
2023/08/18 01:42:26;;;;;;;21.48;19.23;;;614.70;2432.00;;;;;;5019839;28;20408;-74
2023/08/18 01:44:52;;;;;;;27.35;20.45;;;614.60;2432.00;;;;;;5023491;28;20538;-74
2023/08/18 01:47:17;;;;;;;28.40;20.58;;;614.80;2432.00;;;;;;5019644;28;20034;-75
2023/08/18 01:49:43;;;;;;;21.40;19.13;;;614.70;2432.00;;;;;;5016231;28;20088;-74
2023/08/18 01:52:11;;;;;;;24.58;19.52;;;614.70;2432.00;;;;;;5020026;28;20049;-72
2023/08/18 01:54:36;;;;;;;22.15;18.60;;;614.60;2432.00;;;;;;5026370;28;20145;-74
2023/08/18 01:57:02;;;;;;;25.65;18.83;;;614.50;2432.00;;;;;;5024176;28;20531;-73
2023/08/18 01:59:28;;;;;;;24.98;19.92;;;614.50;2432.00;;;;;;5004359;28;20030;-74
2023/08/18 02:01:55;;;;;;;28.88;19.95;;;614.40;2432.00;;;;;;5017059;28;20148;-73
2023/08/18 02:04:20;;;;;;;22.02;19.70;;;614.40;2432.00;;;;;;5021401;28;20356;-74
2023/08/18 02:06:46;;;;;;;23.77;21.27;;;614.40;2432.00;;;;;;5018881;28;20068;-78
2023/08/18 02:09:12;;;;;;;26.00;19.63;;;614.40;2432.00;;;;;;5017282;28;20404;-75
2023/08/18 02:11:37;;;;;;;25.90;20.67;;;614.50;2432.00;;;;;;4998557;28;20026;-74
2023/08/18 02:14:03;;;;;;;24.52;21.35;;;614.50;2432.00;;;;;;5024475;28;20029;-74
2023/08/18 02:16:29;;;;;;;22.45;20.08;;;614.40;2432.00;;;;;;5021318;28;20029;-74
2023/08/18 02:18:55;;;;;;;23.17;20.75;;;589.70;2432.00;;;;;;5026666;28;20021;-73
2023/08/18 02:21:21;;;;;;;25.25;21.20;;;614.40;2432.00;;;;;;5020297;28;20029;-74
2023/08/18 02:23:47;;;;;;;24.98;20.85;;;589.70;2432.00;;;;;;4998258;28;20037;-73
2023/08/18 02:26:12;;;;;;;22.00;19.67;;;589.70;2432.00;;;;;;5004590;28;20026;-74
2023/08/18 02:28:38;;;;;;;25.45;20.85;;;589.70;2432.00;;;;;;5008089;28;20406;-73
2023/08/18 02:31:06;;;;;;;26.75;20.33;;;589.70;2432.00;;;;;;5004123;28;20038;-73
2023/08/18 02:33:33;;;;;;;25.38;20.63;;;589.70;2432.00;;;;;;5020638;28;20095;-73
2023/08/18 02:35:59;;;;;;;22.75;20.42;;;589.70;2432.00;;;;;;5020361;28;20025;-76
2023/08/18 02:38:26;;;;;;;24.33;20.25;;;589.70;2432.00;;;;;;5024307;28;20153;-74
2023/08/18 02:40:52;;;;;;;25.17;21.15;;;589.60;2432.00;;;;;;5018693;28;20060;-73
2023/08/18 02:43:18;;;;;;;23.35;20.85;;;589.70;2432.00;;;;;;5019422;28;20065;-72
2023/08/18 02:45:44;;;;;;;26.80;22.10;;;589.60;2432.00;;;;;;5024669;28;20022;-74
2023/08/18 02:48:12;;;;;;;24.10;20.67;;;589.60;2432.00;;;;;;5021231;28;20049;-74
2023/08/18 02:50:41;;;;;;;23.70;20.30;;;589.50;2432.00;;;;;;5019055;28;20480;-74
2023/08/18 02:53:07;;;;;;;26.08;20.00;;;589.60;2432.00;;;;;;5029424;28;20030;-76
2023/08/18 02:55:36;;;;;;;22.33;19.80;;;589.50;2432.00;;;;;;5024001;28;20505;-73
2023/08/18 02:58:03;;;;;;;23.27;20.00;;;589.60;2432.00;;;;;;5032386;28;20033;-73
2023/08/18 03:00:29;;;;;;;21.27;19.08;;;589.60;2432.00;;;;;;5016752;28;20048;-73
2023/08/18 03:02:54;;;;;;;23.50;18.83;;;589.60;2432.00;;;;;;5020726;28;20045;-75
2023/08/18 03:05:20;;;;;;;28.17;20.85;;;589.50;2432.00;;;;;;5030914;28;20030;-74
2023/08/18 03:07:46;;;;;;;28.30;19.17;;;589.40;2432.00;;;;;;5035189;28;20061;-74
2023/08/18 03:10:12;;;;;;;23.90;18.48;;;589.50;2432.00;;;;;;5035360;28;20061;-73
2023/08/18 03:12:37;;;;;;;25.17;18.15;;;589.40;2432.00;;;;;;5035379;28;20475;-74
2023/08/18 03:15:04;;;;;;;29.92;18.50;;;589.30;2432.00;;;;;;5035514;28;20029;-72
2023/08/18 03:17:30;;;;;;;19.88;17.50;;;589.40;2432.00;;;;;;5035124;28;20551;-73
2023/08/18 03:19:55;;;;;;;22.15;17.55;;;589.30;2432.00;;;;;;5035636;28;20113;-75
2023/08/18 03:22:21;;;;;;;19.80;17.13;;;589.30;2432.00;;;;;;5035199;28;20431;-73
2023/08/18 03:24:47;;;;;;;21.30;18.10;;;589.30;2432.00;;;;;;5035116;28;20387;-73
2023/08/18 03:27:13;;;;;;;23.67;17.83;;;589.30;2432.00;;;;;;5035222;28;20368;-73
2023/08/18 03:29:39;;;;;;;20.27;16.65;;;589.30;2432.00;;;;;;5035106;28;20163;-73
2023/08/18 03:32:05;;;;;;;24.83;18.00;;;589.30;2432.00;;;;;;5017260;28;20037;-76
2023/08/18 03:34:31;;;;;;;22.73;17.58;;;589.30;2432.00;;;;;;5035059;28;20479;-74
2023/08/18 03:36:57;;;;;;;20.02;17.42;;;589.40;2432.00;;;;;;5034918;28;20029;-74
2023/08/18 03:39:22;;;;;;;23.08;16.83;;;589.20;2432.00;;;;;;5034597;28;20424;-74
2023/08/18 03:41:48;;;;;;;19.92;17.42;;;589.20;2432.00;;;;;;5035008;28;20483;-73
2023/08/18 03:44:14;;;;;;;23.45;17.23;;;589.20;2432.00;;;;;;5034809;28;20029;-73
2023/08/18 03:46:40;;;;;;;24.75;17.85;;;589.20;2432.00;;;;;;5034745;28;20037;-74
2023/08/18 03:49:06;;;;;;;20.33;16.60;;;589.20;2432.00;;;;;;5034622;28;20108;-74
2023/08/18 03:51:34;;;;;;;21.15;16.38;;;589.20;2432.00;;;;;;5016700;28;20184;-73
2023/08/18 03:54:00;;;;;;;24.98;17.40;;;589.20;2432.00;;;;;;5016876;28;20503;-74
2023/08/18 03:56:26;;;;;;;21.50;16.60;;;589.10;2432.00;;;;;;5034604;28;20025;-77
2023/08/18 03:58:52;;;;;;;19.20;17.08;;;589.10;2432.00;;;;;;5034560;28;20062;-73
2023/08/18 04:01:18;;;;;;;19.63;16.38;;;589.20;2432.00;;;;;;5034496;28;20071;-74
2023/08/18 04:03:43;;;;;;;23.55;16.25;;;589.20;2432.00;;;;;;5034412;28;20030;-74
2023/08/18 04:06:12;;;;;;;16.85;14.93;;;589.10;2432.00;;;;;;5034161;28;20040;-75
2023/08/18 04:08:43;;;;;;;22.88;16.33;;;589.10;2432.00;;;;;;5034203;28;20033;-73
2023/08/18 04:11:10;;;;;;;21.85;17.02;;;589.10;2432.00;;;;;;5034383;28;20510;-75
2023/08/18 04:13:36;;;;;;;18.98;16.90;;;;;;;;;;5034333;28;20084;-74
2023/08/18 04:16:02;;;;;;;18.25;15.32;;;;;;;;;;5034419;28;20022;-74
2023/08/18 04:18:29;;;;;;;21.27;16.75;;;;;;;;;;5034141;28;20061;-74
2023/08/18 04:20:55;;;;;;;21.08;15.77;;;;;;;;;;5034028;28;20017;-74
2023/08/18 04:23:21;;;;;;;18.65;16.65;;;589.30;2432.00;;;;;;5016358;28;20021;-76
2023/08/18 04:25:47;;;;;;;19.20;16.83;;;589.30;2432.00;;;;;;5034039;28;20048;-74
2023/08/18 04:28:13;;;;;;;18.35;16.35;;;589.20;2432.00;;;;;;5016266;28;20106;-74
2023/08/18 04:30:38;;;;;;;20.67;16.45;;;589.10;2432.00;;;;;;5016197;28;20474;-72
2023/08/18 04:33:04;;;;;;;18.45;16.25;;;589.20;2432.00;;;;;;5016216;28;20038;-73
2023/08/18 04:35:30;;;;;;;21.15;16.90;;;589.20;2432.00;;;;;;5033918;28;20079;-73
2023/08/18 04:37:55;;;;;;;18.90;15.82;;;589.10;2432.00;;;;;;5034032;28;20029;-76
2023/08/18 04:40:23;;;;;;;21.55;15.95;;;589.20;2432.00;;;;;;5033946;28;20463;-75
2023/08/18 04:42:49;;;;;;;18.85;15.90;;;589.30;2432.00;;;;;;5027417;28;20480;-76
2023/08/18 04:45:14;;;;;;;28.20;17.60;;;589.20;2432.00;;;;;;5023315;28;20065;-76
2023/08/18 04:47:40;;;;;;;21.60;16.88;;;589.20;2432.00;;;;;;5019550;28;20034;-75
2023/08/18 04:50:06;;;;;;;20.77;16.95;;;589.20;2432.00;;;;;;5019397;28;20088;-75
2023/08/18 04:52:32;;;;;;;21.83;17.40;;;589.20;2432.00;;;;;;5019045;28;20032;-75
2023/08/18 04:54:58;;;;;;;19.15;16.67;;;589.20;2432.00;;;;;;5021028;28;20038;-76
2023/08/18 04:57:23;;;;;;;22.58;16.92;;;589.20;2432.00;;;;;;5022403;28;20040;-77
2023/08/18 04:59:49;;;;;;;20.27;16.15;;;589.30;2432.00;;;;;;5020465;28;20026;-75
2023/08/18 05:02:15;;;;;;;20.52;16.55;;;589.30;2432.00;;;;;;5013822;28;20033;-75
2023/08/18 05:04:41;;;;;;;35.17;16.35;;;589.40;2432.00;;;;;;5010099;28;20483;-74
2023/08/18 05:07:07;;;;;;;17.58;15.68;;;589.40;2432.00;;;;;;5024469;28;20046;-74
2023/08/18 05:09:34;;;;;;;23.10;17.02;;;589.40;2432.00;;;;;;5004764;28;20492;-76
2023/08/18 05:11:59;;;;;;;20.92;16.30;;;589.40;2432.00;;;;;;5002073;28;20121;-74
2023/08/18 05:14:25;;;;;;;19.30;16.77;;;589.40;2432.00;;;;;;5024095;28;20155;-75
2023/08/18 05:16:51;;;;;;;19.83;16.52;;;589.50;2432.00;;;;;;5020589;28;20026;-75
2023/08/18 05:19:17;;;;;;;19.08;16.67;;;589.60;2432.00;;;;;;4999969;28;20116;-72
2023/08/18 05:21:42;;;;;;;21.33;17.40;;;589.60;2432.00;;;;;;5003973;28;20041;-72
2023/08/18 05:24:08;;;;;;;20.90;16.70;;;589.70;2432.00;;;;;;5020309;28;20092;-70
2023/08/18 05:26:34;;;;;;;19.33;16.25;;;589.70;2432.00;;;;;;5019719;28;20112;-72
2023/08/18 05:28:59;;;;;;;20.08;17.08;;;589.70;2432.00;;;;;;5022513;28;20037;-72
2023/08/18 05:31:25;;;;;;;22.80;17.92;;;589.70;2432.00;;;;;;5004459;28;20468;-72
2023/08/18 05:33:51;;;;;;;27.13;17.98;;;589.70;2432.00;;;;;;5017827;28;20026;-73
2023/08/18 05:36:18;;;;;;;22.67;17.35;;;614.50;2432.00;;;;;;5015848;28;20022;-73
2023/08/18 05:38:43;;;;;;;20.48;16.90;;;614.50;2432.00;;;;;;5020904;28;20037;-73
2023/08/18 05:41:13;;;;;;;19.55;16.55;;;614.50;2432.00;;;;;;5018791;28;20075;-72
2023/08/18 05:43:42;;;;;;;18.63;15.85;;;614.60;2432.00;;;;;;5018036;28;20056;-73
2023/08/18 05:46:08;;;;;;;23.42;16.98;;;614.70;2432.00;;;;;;5015991;28;20030;-73
2023/08/18 05:48:34;;;;;;;24.67;16.85;;;614.80;2432.00;;;;;;5021559;28;20088;-74
2023/08/18 05:51:00;;;;;;;22.63;16.80;;;614.80;2432.00;;;;;;5024884;28;20493;-72
2023/08/18 05:53:27;;;;;;;18.50;16.58;;;614.80;2432.00;;;;;;5023465;28;20121;-72
2023/08/18 05:55:52;;;;;;;25.90;18.50;;;614.80;2432.00;;;;;;5018158;28;20484;-72
2023/08/18 05:58:19;;;;;;;27.13;17.50;;;614.90;2432.00;;;;;;5015356;28;20060;-71
2023/08/18 06:00:47;;;;;;;20.15;17.33;;;615.00;2432.00;;;;;;5024289;28;20113;-71
2023/08/18 06:03:13;;;;;;;23.25;16.75;;;615.00;2432.00;;;;;;5019653;28;20113;-73
2023/08/18 06:05:39;;;;;;;21.70;16.33;;;615.10;2432.00;;;;;;5015553;28;20113;-72
2023/08/18 06:08:05;;;;;;;22.27;16.52;;;615.20;2432.00;;;;;;5022674;28;20437;-73
2023/08/18 06:10:30;;;;;;;20.33;16.48;;;615.30;2432.00;;;;;;5020568;28;20479;-72
2023/08/18 06:12:56;;;;;;;19.52;17.38;;;640.00;2432.00;;;;;;5022844;28;20064;-73
2023/08/18 06:15:23;;;;;;;17.80;14.30;;;640.00;2432.00;;;;;;5024794;28;20403;-73
2023/08/18 06:17:49;;;;;;;20.65;15.05;;;640.00;2432.00;;;;;;5021898;28;20087;-72
2023/08/18 06:20:15;;;;;;;23.77;15.25;;;640.20;2432.00;;;;;;5026944;28;20456;-72
2023/08/18 06:22:40;;;;;;;15.95;14.07;;;640.20;2432.00;;;;;;5020521;28;20063;-72
2023/08/18 06:25:07;;;;;;;16.48;14.40;;;640.40;2432.00;;;;;;5019146;28;20041;-71
2023/08/18 06:27:34;;;;;;;17.17;14.25;;;640.50;2432.00;;;;;;5023159;28;20029;-71
2023/08/18 06:29:59;;;;;;;17.88;14.43;;;640.60;2432.00;;;;;;5026470;28;20034;-72
2023/08/18 06:32:25;;;;;;;21.52;13.25;;;640.70;2432.00;;;;;;5026346;28;20026;-71
2023/08/18 06:34:51;;;;;;;17.83;14.00;;;640.70;2432.00;;;;;;5027915;28;20480;-72
2023/08/18 06:37:17;;;;;;;15.98;14.23;;;640.90;2432.00;;;;;;5022483;28;20030;-74
2023/08/18 06:39:43;;;;;;;15.27;12.82;;;665.70;2432.00;;;;;;5019780;28;20038;-73
2023/08/18 06:42:08;;;;;;;14.02;12.60;;;665.90;2432.00;;;;;;4998313;28;20045;-73
2023/08/18 06:44:34;;;;;;;15.82;12.70;;;666.10;2432.00;;;;;;5027771;28;20017;-74
2023/08/18 06:47:01;;;;;;;14.80;13.18;;;;;;;;;;5024598;28;20056;-74
2023/08/18 06:49:26;;;;;;;24.65;13.80;;;666.30;2432.00;;;;;;5023002;28;20052;-72
2023/08/18 06:51:52;;;;;;;15.93;14.02;;;666.40;2432.00;;;;;;5022963;28;20041;-73
2023/08/18 06:54:18;;;;;;;18.38;13.57;;;691.20;2432.00;;;;;;5008675;28;20033;-72
2023/08/18 06:56:44;;;;;;;14.35;11.68;;;691.40;2432.00;;;;;;5018194;28;20464;-72
2023/08/18 06:59:13;;;;;;;17.42;10.98;;;691.50;2432.00;;;;;;5026867;28;20033;-73
2023/08/18 07:01:40;;;;;;;15.73;11.38;;;691.60;2432.00;;;;;;5016981;28;20033;-71
2023/08/18 07:04:06;;;;;;;16.55;13.05;;;691.80;2432.00;;;;;;5026647;28;20029;-73
2023/08/18 07:06:33;;;;;;;13.95;11.70;;;691.90;2432.00;;;;;;5018164;28;20076;-73
2023/08/18 07:08:59;;;;;;;16.13;11.70;;;691.90;2432.00;;;;;;5023620;28;20041;-72
2023/08/18 07:11:25;;;;;;;15.45;13.02;;;692.00;2432.00;;;;;;5021528;28;20045;-74
2023/08/18 07:13:50;;;;;;;13.27;11.70;;;716.80;2432.00;;;;;;5020469;28;20469;-79
2023/08/18 07:16:16;;;;;;;13.02;11.77;;;;;;;;;;5025214;28;20598;-72
2023/08/18 07:18:42;;;;;;;15.63;12.18;;;717.10;2432.00;;;;;;5020455;28;20022;-75
2023/08/18 07:21:08;;;;;;;15.02;12.35;;;717.20;2432.00;;;;;;5030020;28;20021;-75
2023/08/18 07:23:34;;;;;;;16.58;11.82;;;717.30;2432.00;;;;;;5023668;28;20030;-73
2023/08/18 07:25:59;;;;;;;15.32;12.35;;;717.50;2432.00;;;;;;5019290;28;20034;-73
2023/08/18 07:28:25;;;;;;;17.00;11.73;;;717.70;2432.00;;;;;;5008206;28;20034;-75
2023/08/18 07:30:51;;;;;;;15.82;11.02;;;742.40;2432.00;;;;;;5025928;28;20033;-73
2023/08/18 07:33:17;;;;;;;13.00;10.93;;;742.40;2432.00;;;;;;5021586;28;20033;-74
2023/08/18 07:35:43;;;;;;;13.60;11.60;;;742.60;2432.00;;;;;;5017444;28;20468;-74
2023/08/18 07:38:09;;;;;;;13.77;10.88;;;742.70;2432.00;;;;;;5024938;28;20037;-73
2023/08/18 07:40:34;;;;;;;11.93;10.13;;;742.80;2432.00;;;;;;5026200;28;20116;-73
2023/08/18 07:43:00;;;;;;;15.05;11.82;;;743.10;2432.00;;;;;;5017543;28;20105;-73
2023/08/18 07:45:29;;;;;;;16.95;11.18;;;743.10;2432.00;;;;;;5019252;28;20033;-74
2023/08/18 07:47:55;;;;;;;15.82;9.88;;;743.30;2432.00;;;;;;5024019;28;20028;-72
2023/08/18 07:50:21;;;;;;;20.08;9.45;;;743.30;2432.00;;;;;;5022611;28;20105;-73
2023/08/18 07:52:46;;;;;;;11.30;8.60;;;768.00;2432.00;;;;;;5022764;28;20022;-73
2023/08/18 07:55:13;;;;;;;14.88;10.07;;;768.10;2432.00;;;;;;5017980;28;20464;-73
2023/08/18 07:57:39;;;;;;;14.90;9.13;;;768.30;2432.00;;;;;;5018148;28;20108;-73
2023/08/18 08:00:21;;;;;;;15.45;9.52;;;768.40;2432.00;;;;;;5024467;28;20057;-73
2023/08/18 08:02:48;;;;;;;12.45;8.40;;;768.60;2432.00;;;;;;5022368;28;20038;-74
2023/08/18 08:05:21;;;;;;;11.85;8.52;;;768.60;2432.00;;;;;;5020566;28;20030;-73
2023/08/18 08:07:47;;;;;;;16.60;8.63;;;768.50;2432.00;;;;;;5018060;28;20050;-72
2023/08/18 08:10:13;;;;;;;17.60;9.95;;;768.90;2432.00;;;;;;5027785;28;20056;-75
2023/08/18 08:12:39;;;;;;;14.95;8.65;;;;;;;;;;5021839;28;20364;-74
2023/08/18 08:15:10;;;;;;;12.77;8.55;;;794.10;2380.80;;;;;;5000537;28;20026;-73
2023/08/18 08:17:36;;;;;;;12.88;9.15;;;794.10;2380.80;;;;;;5021174;28;20048;-74
2023/08/18 08:20:16;;;;;;;15.73;8.75;;;794.00;2406.40;;;;;;5025196;28;20026;-74
2023/08/18 08:22:43;;;;;;;13.70;7.78;;;793.90;2304.00;;;;;;5025919;28;20033;-76
2023/08/18 08:25:10;;;;;;;9.68;8.50;;;793.90;2278.40;;;;;;5018872;28;20502;-74
2023/08/18 08:27:36;;;;;;;13.43;8.80;;;793.80;2380.80;;;;;;5023683;28;20038;-73
2023/08/18 08:30:02;;;;;;;16.25;8.93;;;793.90;2406.40;;;;;;5020442;28;20045;-73
2023/08/18 08:32:28;;;;;;;12.98;9.23;;;794.10;2406.40;;;;;;5023165;28;20583;-73
2023/08/18 08:34:54;;;;;;;13.20;9.70;;;;;;;;;;5026037;28;20033;-75
2023/08/18 08:37:20;;;;;;;12.65;9.70;;;;;;;;;;5021176;28;20026;-74
2023/08/18 08:39:46;;;;;;;17.90;10.05;;;794.50;2304.00;;;;;;5023716;28;20027;-73
2023/08/18 08:42:12;;;;;;;16.48;9.52;;;794.50;2432.00;;;;;;5023113;28;20021;-73
2023/08/18 08:44:39;;;;;;;17.27;9.75;;;794.50;2380.80;;;;;;5019764;28;20053;-75
2023/08/18 08:47:05;;;;;;;10.40;9.23;;;794.50;2278.40;;;;;;5027127;28;20053;-74
2023/08/18 08:49:34;;;;;;;19.33;10.07;;;819.40;2304.00;;;;;;5021456;28;20048;-74
2023/08/18 08:52:05;;;;;;;15.05;9.65;;;819.30;2227.20;;;;;;5021666;28;20084;-75
2023/08/18 08:54:33;;;;;;;12.30;10.13;;;819.30;2252.80;;;;;;5020409;28;20400;-73
2023/08/18 08:57:01;;;;;;;15.80;9.88;;;819.30;2304.00;;;;;;5023170;28;20025;-74
2023/08/18 08:59:27;;;;;;;15.75;10.07;;;819.60;2227.20;;;;;;5022551;28;20026;-76
2023/08/18 09:01:53;;;;;;;14.68;9.45;;;819.70;2278.40;;;;;;5024423;28;20021;-75
2023/08/18 09:04:20;;;;;;;16.73;11.95;;;819.70;2124.80;;;;;;5016544;28;20104;-74
2023/08/18 09:06:47;;;;;;;12.00;9.80;;;820.00;2176.00;;;;;;5024166;28;20046;-74
2023/08/18 09:09:14;;;;;;;17.65;10.35;;;819.90;2201.60;;;;;;5020334;28;20060;-75
2023/08/18 09:11:45;;;;;;;15.98;10.38;;;819.80;2150.40;;;;;;5015968;28;20030;-75
2023/08/18 09:14:12;;;;;;;11.60;10.05;;;845.00;2099.20;;;;;;5020964;28;20034;-74
2023/08/18 09:16:38;;;;;;;15.20;10.57;;;844.90;2124.80;;;;;;5018647;28;20024;-74
2023/08/18 09:19:04;;;;;;;11.02;9.15;;;844.90;2099.20;;;;;;5014751;28;20026;-74
2023/08/18 09:21:32;;;;;;;12.48;9.13;;;845.30;2048.00;;;;;;5024217;28;20053;-75
2023/08/18 09:23:58;;;;;;;29.13;12.35;;;844.80;2073.60;;;;;;5025795;28;20123;-74
2023/08/18 09:26:25;;;;;;;12.98;9.23;;;845.00;2048.00;;;;;;5018607;28;20486;-74
2023/08/18 09:28:51;;;;;;;16.73;8.13;;;844.90;1996.80;;;;;;5003999;28;20069;-75
2023/08/18 09:31:21;;;;;;;14.57;8.52;;;844.90;1945.60;;;;;;5023400;28;20614;-74
2023/08/18 09:33:47;;;;;;;10.52;7.05;;;844.90;2048.00;;;;;;5018939;28;20064;-75
2023/08/18 09:36:14;;;;;;;7.72;6.95;;;845.40;1945.60;;;;;;5023977;28;20441;-74
2023/08/18 09:38:43;;;;;;;12.43;7.68;;;845.20;1868.80;;;;;;5022362;28;20022;-74
2023/08/18 09:41:09;;;;;;;15.20;7.25;;;845.40;1843.20;;;;;;5017739;28;20030;-75
2023/08/18 09:43:36;;;;;;;10.90;7.55;;;845.50;1920.00;;;;;;5025549;28;20037;-73
2023/08/18 09:46:06;;;;;;;9.65;7.20;;;845.70;1843.20;;;;;;5021282;28;20025;-73
2023/08/18 09:48:35;;;;;;;13.32;7.78;;;845.50;1792.00;;;;;;5019929;28;20141;-73
2023/08/18 09:51:03;;;;;;;14.18;7.43;;;845.70;1868.80;;;;;;5023945;28;20025;-75
2023/08/18 09:53:33;;;;;;;10.10;7.78;;;870.40;1868.80;;;;;;5006182;28;20431;-74
2023/08/18 09:56:23;;;;;;;14.43;9.02;;;870.60;1868.80;;;;;;5026223;28;20033;-73
2023/08/18 09:59:07;;;;;;;12.15;7.30;;;870.70;1817.60;;;;;;5026198;28;20105;-75
2023/08/18 10:01:36;;;;;;;8.75;7.75;;;870.80;1868.80;;;;;;5012867;28;20041;-75
2023/08/18 10:04:02;;;;;;;11.55;9.07;;;870.60;1868.80;;;;;;5005270;28;20038;-77
2023/08/18 10:06:30;;;;;;;8.52;7.30;;;870.90;1817.60;;;;;;5010985;28;20050;-77
2023/08/18 10:08:57;;;;;;;17.40;7.90;;;870.70;1792.00;;;;;;5025835;28;20042;-74
2023/08/18 10:11:23;;;;;;;15.52;7.65;;;870.70;1792.00;;;;;;5021578;28;20029;-75
2023/08/18 10:13:51;;;;;;;14.30;7.82;;;870.70;1766.40;;;;;;5009246;28;20037;-74
2023/08/18 10:16:18;;;;;;;9.15;7.20;;;870.80;1792.00;;;;;;5027349;28;20091;-74
2023/08/18 10:18:43;;;;;;;15.75;7.20;;;870.70;1792.00;;;;;;5023234;28;20026;-74
2023/08/18 10:21:11;;;;;;;7.97;6.90;;;870.60;1766.40;;;;;;5028391;28;20112;-75
2023/08/18 10:23:40;;;;;;;11.48;7.78;;;870.70;1766.40;;;;;;5024613;28;20492;-75
2023/08/18 10:26:06;;;;;;;11.85;7.28;;;870.70;1817.60;;;;;;5030130;28;20034;-74
2023/08/18 10:28:34;;;;;;;10.98;8.20;;;870.70;1766.40;;;;;;5008846;28;20036;-75
2023/08/18 10:31:13;;;;;;;9.05;6.55;;;871.10;1817.60;;;;;;5025190;28;20055;-73
2023/08/18 10:33:48;;;;;;;9.52;7.30;;;870.90;1715.20;;;;;;5017869;28;20035;-74
2023/08/18 10:36:28;;;;;;;8.98;7.90;;;871.10;1817.60;;;;;;5026896;28;20033;-75
2023/08/18 10:38:54;;;;;;;15.52;8.52;;;871.00;1715.20;;;;;;5025375;28;20030;-76
2023/08/18 10:41:28;;;;;;;11.40;7.03;;;871.30;1766.40;;;;;;5021314;28;20036;-74
2023/08/18 10:43:57;;;;;;;13.45;8.13;;;871.10;1689.60;;;;;;5022096;28;20084;-74
2023/08/18 10:46:34;;;;;;;7.55;6.55;;;871.10;1715.20;;;;;;5024390;28;20507;-74
2023/08/18 10:49:00;;;;;;;13.95;7.90;;;896.00;1715.20;;;;;;5006189;28;20483;-74
2023/08/18 10:51:27;;;;;;;11.57;7.93;;;896.00;1664.00;;;;;;5007524;28;20472;-76
2023/08/18 10:53:52;;;;;;;9.30;7.30;;;871.30;1689.60;;;;;;5025049;28;20029;-73
2023/08/18 10:56:18;;;;;;;12.65;7.47;;;870.80;1766.40;;;;;;5023260;28;20022;-73
2023/08/18 10:58:44;;;;;;;16.65;7.53;;;870.90;1715.20;;;;;;5024569;28;20141;-74
2023/08/18 11:01:11;;;;;;;8.68;7.18;;;870.90;1740.80;;;;;;5024341;28;20109;-74
2023/08/18 11:03:41;;;;;;;12.60;7.57;;;871.20;1766.40;;;;;;5026870;28;20025;-73
2023/08/18 11:06:06;;;;;;;17.23;8.38;;;871.10;1689.60;;;;;;5023483;28;20030;-75
2023/08/18 11:08:32;;;;;;;8.80;7.53;;;871.30;1689.60;;;;;;5025448;28;20052;-74
2023/08/18 11:10:58;;;;;;;8.20;7.30;;;896.10;1766.40;;;;;;5021749;28;20084;-74
2023/08/18 11:13:26;;;;;;;11.10;7.53;;;896.10;1740.80;;;;;;5008268;28;20030;-75
2023/08/18 11:15:53;;;;;;;15.45;7.50;;;896.30;1715.20;;;;;;5024827;28;20391;-75
2023/08/18 11:18:21;;;;;;;9.52;7.30;;;896.10;1715.20;;;;;;5022327;28;20044;-73
2023/08/18 11:20:49;;;;;;;8.10;7.00;;;896.00;1664.00;;;;;;5020279;28;20028;-73
2023/08/18 11:23:14;;;;;;;12.02;7.40;;;871.30;1612.80;;;;;;5008563;28;20026;-74
2023/08/18 11:25:40;;;;;;;8.38;7.57;;;871.30;1612.80;;;;;;5019242;28;20487;-74
2023/08/18 11:28:08;;;;;;;8.98;7.75;;;871.30;1638.40;;;;;;5020904;28;20057;-74
2023/08/18 11:30:34;;;;;;;9.20;6.90;;;871.30;1664.00;;;;;;5025047;28;20092;-74
2023/08/18 11:33:00;;;;;;;12.27;6.78;;;871.10;1638.40;;;;;;5025635;28;20025;-75
2023/08/18 11:35:26;;;;;;;12.15;7.05;;;870.90;1664.00;;;;;;5020296;28;20044;-75
2023/08/18 11:37:52;;;;;;;9.48;7.32;;;871.10;1664.00;;;;;;5019132;28;20026;-74
2023/08/18 11:40:22;;;;;;;9.43;8.10;;;870.90;1638.40;;;;;;5024472;28;20022;-74
2023/08/18 11:42:50;;;;;;;11.43;8.00;;;870.80;1664.00;;;;;;5024670;28;20029;-72
2023/08/18 11:45:21;;;;;;;10.85;7.32;;;870.90;1664.00;;;;;;5027277;28;20376;-73
2023/08/18 11:48:07;;;;;;;16.90;8.25;;;870.90;1715.20;;;;;;5024895;28;20528;-73
2023/08/18 11:50:35;;;;;;;15.75;8.25;;;871.10;1740.80;;;;;;5022083;28;20045;-71
2023/08/18 11:53:03;;;;;;;15.05;7.63;;;871.20;1715.20;;;;;;5025367;28;20128;-74
2023/08/18 11:55:38;;;;;;;11.32;8.30;;;871.20;1689.60;;;;;;5017028;28;20033;-71
2023/08/18 11:58:14;;;;;;;11.85;6.85;;;870.80;1689.60;;;;;;5020053;28;20065;-74
2023/08/18 12:00:41;;;;;;;10.77;7.70;;;870.90;1664.00;;;;;;5013734;28;20064;-74
2023/08/18 12:03:22;;;;;;;10.40;7.22;;;870.90;1664.00;;;;;;5003262;28;20030;-74
2023/08/18 12:05:49;;;;;;;8.93;7.47;;;870.90;1740.80;;;;;;5023146;28;20040;-72